sensor_id;sensor_type;location;lat;lon;timestamp;temperature;humidity
11538;DHT22;50159;49.426;11.182;2022-08-16T00:00:15;17.60;99.90
11538;DHT22;50159;49.426;11.182;2022-08-16T00:02:49;17.60;99.90
11538;DHT22;50159;49.426;11.182;2022-08-16T00:05:18;17.60;99.90
11538;DHT22;50159;49.426;11.182;2022-08-16T00:07:47;17.50;99.90
11538;DHT22;50159;49.426;11.182;2022-08-16T00:10:23;17.50;99.90
11538;DHT22;50159;49.426;11.182;2022-08-16T00:12:51;17.50;99.90
11538;DHT22;50159;49.426;11.182;2022-08-16T00:15:26;17.40;99.90
11538;DHT22;50159;49.426;11.182;2022-08-16T00:18:19;17.40;99.90
11538;DHT22;50159;49.426;11.182;2022-08-16T00:20:53;17.30;99.90
11538;DHT22;50159;49.426;11.182;2022-08-16T00:23:20;17.20;99.90
11538;DHT22;50159;49.426;11.182;2022-08-16T00:26:05;17.20;99.90
11538;DHT22;50159;49.426;11.182;2022-08-16T00:28:52;17.50;99.90
11538;DHT22;50159;49.426;11.182;2022-08-16T00:31:20;17.10;99.90
11538;DHT22;50159;49.426;11.182;2022-08-16T00:33:50;17.10;99.90
11538;DHT22;50159;49.426;11.182;2022-08-16T00:36:17;17.00;99.90
11538;DHT22;50159;49.426;11.182;2022-08-16T00:38:44;16.90;99.90
11538;DHT22;50159;49.426;11.182;2022-08-16T00:41:10;16.90;99.90
11538;DHT22;50159;49.426;11.182;2022-08-16T00:43:38;16.90;99.90
11538;DHT22;50159;49.426;11.182;2022-08-16T00:46:11;16.80;99.90
11538;DHT22;50159;49.426;11.182;2022-08-16T00:49:03;16.80;99.90
11538;DHT22;50159;49.426;11.182;2022-08-16T00:51:47;16.80;99.90
11538;DHT22;50159;49.426;11.182;2022-08-16T00:54:23;16.70;99.90
11538;DHT22;50159;49.426;11.182;2022-08-16T00:56:54;16.70;99.90
11538;DHT22;50159;49.426;11.182;2022-08-16T00:59:28;16.70;99.90
11538;DHT22;50159;49.426;11.182;2022-08-16T01:02:01;16.70;99.90
11538;DHT22;50159;49.426;11.182;2022-08-16T01:04:51;16.70;99.90
11538;DHT22;50159;49.426;11.182;2022-08-16T01:07:39;16.70;99.90
11538;DHT22;50159;49.426;11.182;2022-08-16T01:10:19;16.70;99.90
11538;DHT22;50159;49.426;11.182;2022-08-16T01:13:13;16.70;99.90
11538;DHT22;50159;49.426;11.182;2022-08-16T01:15:48;16.60;99.90
11538;DHT22;50159;49.426;11.182;2022-08-16T01:18:21;16.50;99.90
11538;DHT22;50159;49.426;11.182;2022-08-16T01:21:18;16.40;99.90
11538;DHT22;50159;49.426;11.182;2022-08-16T01:27:28;16.30;99.90
11538;DHT22;50159;49.426;11.182;2022-08-16T01:30:17;16.20;99.90
11538;DHT22;50159;49.426;11.182;2022-08-16T01:32:53;16.20;99.90
11538;DHT22;50159;49.426;11.182;2022-08-16T01:36:02;16.20;99.90
11538;DHT22;50159;49.426;11.182;2022-08-16T01:38:41;16.20;99.90
11538;DHT22;50159;49.426;11.182;2022-08-16T01:41:24;16.20;99.90
11538;DHT22;50159;49.426;11.182;2022-08-16T01:43:56;16.10;99.90
11538;DHT22;50159;49.426;11.182;2022-08-16T01:49:08;16.10;99.90
11538;DHT22;50159;49.426;11.182;2022-08-16T01:51:42;16.10;99.90
11538;DHT22;50159;49.426;11.182;2022-08-16T01:54:11;16.10;99.90
11538;DHT22;50159;49.426;11.182;2022-08-16T01:56:41;16.10;99.90
11538;DHT22;50159;49.426;11.182;2022-08-16T01:59:11;16.10;99.90
11538;DHT22;50159;49.426;11.182;2022-08-16T02:01:43;16.10;99.90
11538;DHT22;50159;49.426;11.182;2022-08-16T02:04:21;16.10;99.90
11538;DHT22;50159;49.426;11.182;2022-08-16T02:07:09;16.10;99.90
11538;DHT22;50159;49.426;11.182;2022-08-16T02:09:39;16.10;99.90
11538;DHT22;50159;49.426;11.182;2022-08-16T02:12:07;16.10;99.90
11538;DHT22;50159;49.426;11.182;2022-08-16T02:14:55;16.10;99.90
11538;DHT22;50159;49.426;11.182;2022-08-16T02:17:25;16.10;99.90
11538;DHT22;50159;49.426;11.182;2022-08-16T02:19:54;16.00;99.90
11538;DHT22;50159;49.426;11.182;2022-08-16T02:22:26;16.00;99.90
11538;DHT22;50159;49.426;11.182;2022-08-16T02:25:05;16.10;99.90
11538;DHT22;50159;49.426;11.182;2022-08-16T02:27:41;16.00;99.90
11538;DHT22;50159;49.426;11.182;2022-08-16T02:30:20;16.00;99.90
11538;DHT22;50159;49.426;11.182;2022-08-16T02:33:09;16.00;99.90
11538;DHT22;50159;49.426;11.182;2022-08-16T02:35:37;16.00;99.90
11538;DHT22;50159;49.426;11.182;2022-08-16T02:38:25;16.00;99.90
11538;DHT22;50159;49.426;11.182;2022-08-16T02:40:54;16.00;99.90
11538;DHT22;50159;49.426;11.182;2022-08-16T02:43:25;15.90;99.90
11538;DHT22;50159;49.426;11.182;2022-08-16T02:45:59;15.90;99.90
11538;DHT22;50159;49.426;11.182;2022-08-16T02:48:33;15.90;99.90
11538;DHT22;50159;49.426;11.182;2022-08-16T02:51:05;15.90;99.90
11538;DHT22;50159;49.426;11.182;2022-08-16T02:53:40;15.80;99.90
11538;DHT22;50159;49.426;11.182;2022-08-16T02:56:11;15.80;99.90
11538;DHT22;50159;49.426;11.182;2022-08-16T02:58:45;15.80;99.90
11538;DHT22;50159;49.426;11.182;2022-08-16T03:01:15;15.80;99.90
11538;DHT22;50159;49.426;11.182;2022-08-16T03:04:00;15.70;99.90
11538;DHT22;50159;49.426;11.182;2022-08-16T03:06:49;15.70;99.90
11538;DHT22;50159;49.426;11.182;2022-08-16T03:09:22;15.70;99.90
11538;DHT22;50159;49.426;11.182;2022-08-16T03:11:54;15.70;99.90
11538;DHT22;50159;49.426;11.182;2022-08-16T03:14:22;15.70;99.90
11538;DHT22;50159;49.426;11.182;2022-08-16T03:16:51;15.70;99.90
11538;DHT22;50159;49.426;11.182;2022-08-16T03:19:28;15.60;99.90
11538;DHT22;50159;49.426;11.182;2022-08-16T03:22:15;15.70;99.90
11538;DHT22;50159;49.426;11.182;2022-08-16T03:24:54;15.60;99.90
11538;DHT22;50159;49.426;11.182;2022-08-16T03:27:27;15.60;99.90
11538;DHT22;50159;49.426;11.182;2022-08-16T03:29:58;15.50;99.90
11538;DHT22;50159;49.426;11.182;2022-08-16T03:32:27;15.50;99.90
11538;DHT22;50159;49.426;11.182;2022-08-16T03:34:54;15.50;99.90
11538;DHT22;50159;49.426;11.182;2022-08-16T03:37:22;15.50;99.90
11538;DHT22;50159;49.426;11.182;2022-08-16T03:39:49;15.50;99.90
11538;DHT22;50159;49.426;11.182;2022-08-16T03:42:28;15.50;99.90
11538;DHT22;50159;49.426;11.182;2022-08-16T03:44:55;15.40;99.90
11538;DHT22;50159;49.426;11.182;2022-08-16T03:47:29;15.40;99.90
11538;DHT22;50159;49.426;11.182;2022-08-16T03:50:01;15.30;99.90
11538;DHT22;50159;49.426;11.182;2022-08-16T03:52:49;15.30;99.90
11538;DHT22;50159;49.426;11.182;2022-08-16T03:55:16;15.30;99.90
11538;DHT22;50159;49.426;11.182;2022-08-16T03:57:43;15.30;99.90
11538;DHT22;50159;49.426;11.182;2022-08-16T04:00:22;15.30;99.90
11538;DHT22;50159;49.426;11.182;2022-08-16T04:03:05;15.30;99.90
11538;DHT22;50159;49.426;11.182;2022-08-16T04:05:37;15.20;99.90
11538;DHT22;50159;49.426;11.182;2022-08-16T04:08:09;15.20;99.90
11538;DHT22;50159;49.426;11.182;2022-08-16T04:10:51;15.20;99.90
11538;DHT22;50159;49.426;11.182;2022-08-16T04:13:21;15.10;99.90
11538;DHT22;50159;49.426;11.182;2022-08-16T04:16:09;15.10;99.90
11538;DHT22;50159;49.426;11.182;2022-08-16T04:18:54;15.10;99.90
11538;DHT22;50159;49.426;11.182;2022-08-16T04:21:34;15.10;99.90
11538;DHT22;50159;49.426;11.182;2022-08-16T04:24:13;15.10;99.90
11538;DHT22;50159;49.426;11.182;2022-08-16T04:26:41;15.10;99.90
11538;DHT22;50159;49.426;11.182;2022-08-16T04:29:13;15.10;99.90
11538;DHT22;50159;49.426;11.182;2022-08-16T04:31:52;15.10;99.90
11538;DHT22;50159;49.426;11.182;2022-08-16T04:34:29;15.00;99.90
11538;DHT22;50159;49.426;11.182;2022-08-16T04:36:59;15.00;99.90
11538;DHT22;50159;49.426;11.182;2022-08-16T04:39:29;15.00;99.90
11538;DHT22;50159;49.426;11.182;2022-08-16T04:42:16;15.10;99.90
11538;DHT22;50159;49.426;11.182;2022-08-16T04:44:51;15.10;99.90
11538;DHT22;50159;49.426;11.182;2022-08-16T04:47:26;15.10;99.90
11538;DHT22;50159;49.426;11.182;2022-08-16T04:49:58;15.10;99.90
11538;DHT22;50159;49.426;11.182;2022-08-16T04:52:26;15.20;99.90
11538;DHT22;50159;49.426;11.182;2022-08-16T04:55:04;15.30;99.90
11538;DHT22;50159;49.426;11.182;2022-08-16T04:57:33;15.30;99.90
11538;DHT22;50159;49.426;11.182;2022-08-16T05:00:00;15.40;99.90
11538;DHT22;50159;49.426;11.182;2022-08-16T05:02:50;15.40;99.90
11538;DHT22;50159;49.426;11.182;2022-08-16T05:05:24;15.40;99.90
11538;DHT22;50159;49.426;11.182;2022-08-16T05:07:58;15.40;99.90
11538;DHT22;50159;49.426;11.182;2022-08-16T05:10:27;15.50;99.90
11538;DHT22;50159;49.426;11.182;2022-08-16T05:12:57;15.60;99.90
11538;DHT22;50159;49.426;11.182;2022-08-16T05:15:25;15.60;99.90
11538;DHT22;50159;49.426;11.182;2022-08-16T05:17:54;15.60;99.90
11538;DHT22;50159;49.426;11.182;2022-08-16T05:20:29;15.70;99.90
11538;DHT22;50159;49.426;11.182;2022-08-16T05:23:03;15.70;99.90
11538;DHT22;50159;49.426;11.182;2022-08-16T05:25:31;15.70;99.90
11538;DHT22;50159;49.426;11.182;2022-08-16T05:28:13;15.80;99.90
11538;DHT22;50159;49.426;11.182;2022-08-16T05:30:40;15.80;99.90
11538;DHT22;50159;49.426;11.182;2022-08-16T05:33:09;15.80;99.90
11538;DHT22;50159;49.426;11.182;2022-08-16T05:35:44;15.90;99.90
11538;DHT22;50159;49.426;11.182;2022-08-16T05:38:22;16.00;99.90
11538;DHT22;50159;49.426;11.182;2022-08-16T05:41:06;16.00;99.90
11538;DHT22;50159;49.426;11.182;2022-08-16T05:43:35;16.10;99.90
11538;DHT22;50159;49.426;11.182;2022-08-16T05:46:14;16.20;99.90
11538;DHT22;50159;49.426;11.182;2022-08-16T05:48:58;16.30;99.90
11538;DHT22;50159;49.426;11.182;2022-08-16T05:51:35;16.30;99.90
11538;DHT22;50159;49.426;11.182;2022-08-16T05:54:08;16.40;99.90
11538;DHT22;50159;49.426;11.182;2022-08-16T05:56:40;16.50;99.90
11538;DHT22;50159;49.426;11.182;2022-08-16T05:59:09;16.60;99.90
11538;DHT22;50159;49.426;11.182;2022-08-16T06:01:37;16.70;99.90
11538;DHT22;50159;49.426;11.182;2022-08-16T06:04:06;16.70;99.90
11538;DHT22;50159;49.426;11.182;2022-08-16T06:06:41;16.80;99.90
11538;DHT22;50159;49.426;11.182;2022-08-16T06:09:22;16.90;99.90
11538;DHT22;50159;49.426;11.182;2022-08-16T06:12:09;17.00;99.90
11538;DHT22;50159;49.426;11.182;2022-08-16T06:14:37;17.10;99.90
11538;DHT22;50159;49.426;11.182;2022-08-16T06:17:06;17.20;99.90
11538;DHT22;50159;49.426;11.182;2022-08-16T06:19:33;17.20;99.90
11538;DHT22;50159;49.426;11.182;2022-08-16T06:22:01;17.30;99.90
11538;DHT22;50159;49.426;11.182;2022-08-16T06:24:28;17.40;99.90
11538;DHT22;50159;49.426;11.182;2022-08-16T06:27:15;17.50;99.90
11538;DHT22;50159;49.426;11.182;2022-08-16T06:29:42;17.50;99.90
11538;DHT22;50159;49.426;11.182;2022-08-16T06:32:15;17.60;99.90
11538;DHT22;50159;49.426;11.182;2022-08-16T06:34:54;17.60;99.90
11538;DHT22;50159;49.426;11.182;2022-08-16T06:37:28;17.70;99.90
11538;DHT22;50159;49.426;11.182;2022-08-16T06:40:04;17.80;99.90
11538;DHT22;50159;49.426;11.182;2022-08-16T06:42:41;17.80;99.90
11538;DHT22;50159;49.426;11.182;2022-08-16T06:45:14;17.90;99.90
11538;DHT22;50159;49.426;11.182;2022-08-16T06:47:41;18.00;99.90
11538;DHT22;50159;49.426;11.182;2022-08-16T06:50:22;18.10;99.90
11538;DHT22;50159;49.426;11.182;2022-08-16T06:52:55;18.20;99.90
11538;DHT22;50159;49.426;11.182;2022-08-16T06:55:27;18.40;99.90
11538;DHT22;50159;49.426;11.182;2022-08-16T06:58:00;18.50;99.90
11538;DHT22;50159;49.426;11.182;2022-08-16T07:00:34;18.60;99.90
11538;DHT22;50159;49.426;11.182;2022-08-16T07:03:04;18.80;99.90
11538;DHT22;50159;49.426;11.182;2022-08-16T07:05:52;18.90;99.90
11538;DHT22;50159;49.426;11.182;2022-08-16T07:08:19;19.00;99.90
11538;DHT22;50159;49.426;11.182;2022-08-16T07:10:46;19.10;99.90
11538;DHT22;50159;49.426;11.182;2022-08-16T07:13:13;19.10;99.90
11538;DHT22;50159;49.426;11.182;2022-08-16T07:16:02;19.30;99.90
11538;DHT22;50159;49.426;11.182;2022-08-16T07:18:32;19.40;99.90
11538;DHT22;50159;49.426;11.182;2022-08-16T07:20:59;19.50;99.90
11538;DHT22;50159;49.426;11.182;2022-08-16T07:23:28;19.60;99.90
11538;DHT22;50159;49.426;11.182;2022-08-16T07:26:07;19.70;99.90
11538;DHT22;50159;49.426;11.182;2022-08-16T07:28:51;19.80;99.90
11538;DHT22;50159;49.426;11.182;2022-08-16T07:31:19;19.90;99.90
11538;DHT22;50159;49.426;11.182;2022-08-16T07:33:48;20.10;99.90
11538;DHT22;50159;49.426;11.182;2022-08-16T07:36:18;20.10;99.90
11538;DHT22;50159;49.426;11.182;2022-08-16T07:38:48;20.30;99.90
11538;DHT22;50159;49.426;11.182;2022-08-16T07:41:15;20.40;99.90
11538;DHT22;50159;49.426;11.182;2022-08-16T07:43:44;20.50;99.90
11538;DHT22;50159;49.426;11.182;2022-08-16T07:46:13;20.60;99.90
11538;DHT22;50159;49.426;11.182;2022-08-16T07:49:01;20.70;99.90
11538;DHT22;50159;49.426;11.182;2022-08-16T07:51:30;20.90;99.90
11538;DHT22;50159;49.426;11.182;2022-08-16T07:54:04;21.00;99.90
11538;DHT22;50159;49.426;11.182;2022-08-16T07:56:36;21.10;99.90
11538;DHT22;50159;49.426;11.182;2022-08-16T07:59:04;21.20;99.90
11538;DHT22;50159;49.426;11.182;2022-08-16T08:01:33;21.20;99.90
11538;DHT22;50159;49.426;11.182;2022-08-16T08:04:01;21.30;99.90
11538;DHT22;50159;49.426;11.182;2022-08-16T08:06:30;21.50;99.90
11538;DHT22;50159;49.426;11.182;2022-08-16T08:09:02;21.60;99.30
11538;DHT22;50159;49.426;11.182;2022-08-16T08:11:31;21.80;98.30
11538;DHT22;50159;49.426;11.182;2022-08-16T08:13:59;22.00;97.40
11538;DHT22;50159;49.426;11.182;2022-08-16T08:16:32;22.10;96.10
11538;DHT22;50159;49.426;11.182;2022-08-16T08:19:01;22.20;95.00
11538;DHT22;50159;49.426;11.182;2022-08-16T08:21:31;22.30;94.20
11538;DHT22;50159;49.426;11.182;2022-08-16T08:24:20;22.50;94.50
11538;DHT22;50159;49.426;11.182;2022-08-16T08:26:59;22.60;93.00
11538;DHT22;50159;49.426;11.182;2022-08-16T08:29:30;22.70;92.00
11538;DHT22;50159;49.426;11.182;2022-08-16T08:32:06;22.80;91.80
11538;DHT22;50159;49.426;11.182;2022-08-16T08:34:55;22.80;91.40
11538;DHT22;50159;49.426;11.182;2022-08-16T08:37:30;22.90;91.70
11538;DHT22;50159;49.426;11.182;2022-08-16T08:40:18;23.10;91.80
11538;DHT22;50159;49.426;11.182;2022-08-16T08:42:50;23.30;90.50
11538;DHT22;50159;49.426;11.182;2022-08-16T08:45:23;23.30;90.50
11538;DHT22;50159;49.426;11.182;2022-08-16T08:48:10;23.40;90.20
11538;DHT22;50159;49.426;11.182;2022-08-16T08:50:57;23.60;89.30
11538;DHT22;50159;49.426;11.182;2022-08-16T08:53:25;23.80;90.00
11538;DHT22;50159;49.426;11.182;2022-08-16T08:55:56;23.90;85.60
11538;DHT22;50159;49.426;11.182;2022-08-16T08:58:25;24.00;84.70
11538;DHT22;50159;49.426;11.182;2022-08-16T09:01:00;24.20;84.90
11538;DHT22;50159;49.426;11.182;2022-08-16T09:03:30;24.50;83.20
11538;DHT22;50159;49.426;11.182;2022-08-16T09:05:58;24.70;78.90
11538;DHT22;50159;49.426;11.182;2022-08-16T09:08:26;24.40;77.00
11538;DHT22;50159;49.426;11.182;2022-08-16T09:10:54;24.10;77.90
11538;DHT22;50159;49.426;11.182;2022-08-16T09:13:26;24.20;79.90
11538;DHT22;50159;49.426;11.182;2022-08-16T09:15:58;24.30;78.80
11538;DHT22;50159;49.426;11.182;2022-08-16T09:18:26;24.50;77.40
11538;DHT22;50159;49.426;11.182;2022-08-16T09:21:03;24.60;75.40
11538;DHT22;50159;49.426;11.182;2022-08-16T09:23:35;24.60;72.80
11538;DHT22;50159;49.426;11.182;2022-08-16T09:26:04;24.80;73.40
11538;DHT22;50159;49.426;11.182;2022-08-16T09:28:53;24.90;70.20
11538;DHT22;50159;49.426;11.182;2022-08-16T09:31:40;25.10;70.20
11538;DHT22;50159;49.426;11.182;2022-08-16T09:34:08;25.20;69.20
11538;DHT22;50159;49.426;11.182;2022-08-16T09:36:36;25.30;69.80
11538;DHT22;50159;49.426;11.182;2022-08-16T09:39:12;25.60;69.10
11538;DHT22;50159;49.426;11.182;2022-08-16T09:41:45;25.70;67.30
11538;DHT22;50159;49.426;11.182;2022-08-16T09:44:20;25.60;66.20
11538;DHT22;50159;49.426;11.182;2022-08-16T09:47:09;25.70;66.90
11538;DHT22;50159;49.426;11.182;2022-08-16T09:49:37;25.80;66.30
11538;DHT22;50159;49.426;11.182;2022-08-16T09:52:08;26.00;65.50
11538;DHT22;50159;49.426;11.182;2022-08-16T09:54:36;26.20;64.20
11538;DHT22;50159;49.426;11.182;2022-08-16T09:57:10;26.40;64.10
11538;DHT22;50159;49.426;11.182;2022-08-16T09:59:38;26.80;63.60
11538;DHT22;50159;49.426;11.182;2022-08-16T10:02:08;26.80;60.40
11538;DHT22;50159;49.426;11.182;2022-08-16T10:04:54;26.90;60.10
11538;DHT22;50159;49.426;11.182;2022-08-16T10:07:24;26.70;57.90
11538;DHT22;50159;49.426;11.182;2022-08-16T10:10:10;26.30;59.40
11538;DHT22;50159;49.426;11.182;2022-08-16T10:12:44;25.90;60.90
11538;DHT22;50159;49.426;11.182;2022-08-16T10:15:29;26.00;60.40
11538;DHT22;50159;49.426;11.182;2022-08-16T10:17:57;26.30;59.40
11538;DHT22;50159;49.426;11.182;2022-08-16T10:20:45;26.40;57.90
11538;DHT22;50159;49.426;11.182;2022-08-16T10:23:15;26.60;58.10
11538;DHT22;50159;49.426;11.182;2022-08-16T10:25:44;26.70;56.30
11538;DHT22;50159;49.426;11.182;2022-08-16T10:28:32;26.60;55.70
11538;DHT22;50159;49.426;11.182;2022-08-16T10:31:08;26.20;56.50
11538;DHT22;50159;49.426;11.182;2022-08-16T10:33:43;26.30;58.50
11538;DHT22;50159;49.426;11.182;2022-08-16T10:36:12;26.60;56.90
11538;DHT22;50159;49.426;11.182;2022-08-16T10:38:59;26.80;56.90
11538;DHT22;50159;49.426;11.182;2022-08-16T10:41:27;26.60;55.60
11538;DHT22;50159;49.426;11.182;2022-08-16T10:43:55;26.40;56.70
11538;DHT22;50159;49.426;11.182;2022-08-16T10:46:22;26.60;56.30
11538;DHT22;50159;49.426;11.182;2022-08-16T10:49:07;26.50;55.50
11538;DHT22;50159;49.426;11.182;2022-08-16T10:51:35;26.40;56.40
11538;DHT22;50159;49.426;11.182;2022-08-16T10:54:23;26.30;56.70
11538;DHT22;50159;49.426;11.182;2022-08-16T10:56:57;26.20;57.60
11538;DHT22;50159;49.426;11.182;2022-08-16T10:59:32;26.40;57.00
11538;DHT22;50159;49.426;11.182;2022-08-16T11:02:16;26.50;56.30
11538;DHT22;50159;49.426;11.182;2022-08-16T11:05:04;26.50;56.20
11538;DHT22;50159;49.426;11.182;2022-08-16T11:07:38;26.80;55.40
11538;DHT22;50159;49.426;11.182;2022-08-16T11:10:13;26.90;53.80
11538;DHT22;50159;49.426;11.182;2022-08-16T11:13:04;26.90;53.90
11538;DHT22;50159;49.426;11.182;2022-08-16T11:15:54;27.30;52.90
11538;DHT22;50159;49.426;11.182;2022-08-16T11:18:27;27.80;50.60
11538;DHT22;50159;49.426;11.182;2022-08-16T11:21:15;28.20;50.50
11538;DHT22;50159;49.426;11.182;2022-08-16T11:23:56;28.30;49.40
11538;DHT22;50159;49.426;11.182;2022-08-16T11:26:25;28.10;49.60
11538;DHT22;50159;49.426;11.182;2022-08-16T11:28:53;27.80;49.20
11538;DHT22;50159;49.426;11.182;2022-08-16T11:31:42;27.80;48.90
11538;DHT22;50159;49.426;11.182;2022-08-16T11:34:20;28.10;49.40
11538;DHT22;50159;49.426;11.182;2022-08-16T11:36:47;28.30;48.50
11538;DHT22;50159;49.426;11.182;2022-08-16T11:39:27;28.80;48.30
11538;DHT22;50159;49.426;11.182;2022-08-16T11:41:57;28.80;46.70
11538;DHT22;50159;49.426;11.182;2022-08-16T11:44:24;28.70;46.90
11538;DHT22;50159;49.426;11.182;2022-08-16T11:47:11;28.90;47.80
11538;DHT22;50159;49.426;11.182;2022-08-16T11:49:38;29.30;47.00
11538;DHT22;50159;49.426;11.182;2022-08-16T11:52:05;29.60;46.70
11538;DHT22;50159;49.426;11.182;2022-08-16T11:54:33;29.80;45.60
11538;DHT22;50159;49.426;11.182;2022-08-16T11:57:03;29.60;43.90
11538;DHT22;50159;49.426;11.182;2022-08-16T11:59:36;29.30;45.30
11538;DHT22;50159;49.426;11.182;2022-08-16T12:02:06;29.30;46.60
11538;DHT22;50159;49.426;11.182;2022-08-16T12:04:53;29.50;46.30
11538;DHT22;50159;49.426;11.182;2022-08-16T12:07:21;29.00;45.20
11538;DHT22;50159;49.426;11.182;2022-08-16T12:09:50;28.60;46.10
11538;DHT22;50159;49.426;11.182;2022-08-16T12:12:20;28.30;47.20
11538;DHT22;50159;49.426;11.182;2022-08-16T12:14:50;28.30;47.40
11538;DHT22;50159;49.426;11.182;2022-08-16T12:17:30;28.70;46.90
11538;DHT22;50159;49.426;11.182;2022-08-16T12:19:59;29.10;45.40
11538;DHT22;50159;49.426;11.182;2022-08-16T12:22:30;29.50;44.40
11538;DHT22;50159;49.426;11.182;2022-08-16T12:25:07;29.80;44.20
11538;DHT22;50159;49.426;11.182;2022-08-16T12:27:36;30.10;42.90
11538;DHT22;50159;49.426;11.182;2022-08-16T12:30:07;29.80;43.10
11538;DHT22;50159;49.426;11.182;2022-08-16T12:32:52;29.30;43.10
11538;DHT22;50159;49.426;11.182;2022-08-16T12:35:24;29.40;44.10
11538;DHT22;50159;49.426;11.182;2022-08-16T12:37:54;29.60;42.90
11538;DHT22;50159;49.426;11.182;2022-08-16T12:40:29;29.40;42.50
11538;DHT22;50159;49.426;11.182;2022-08-16T12:43:00;29.20;43.40
11538;DHT22;50159;49.426;11.182;2022-08-16T12:45:37;29.50;44.30
11538;DHT22;50159;49.426;11.182;2022-08-16T12:48:15;29.60;42.90
11538;DHT22;50159;49.426;11.182;2022-08-16T12:51:05;29.60;41.80
11538;DHT22;50159;49.426;11.182;2022-08-16T12:53:50;29.40;41.90
11538;DHT22;50159;49.426;11.182;2022-08-16T12:56:23;29.30;42.60
11538;DHT22;50159;49.426;11.182;2022-08-16T12:58:53;29.40;43.00
11538;DHT22;50159;49.426;11.182;2022-08-16T13:01:25;29.40;42.50
11538;DHT22;50159;49.426;11.182;2022-08-16T13:03:56;29.50;42.50
11538;DHT22;50159;49.426;11.182;2022-08-16T13:06:46;29.60;42.80
11538;DHT22;50159;49.426;11.182;2022-08-16T13:09:14;29.80;42.20
11538;DHT22;50159;49.426;11.182;2022-08-16T13:14:32;30.10;41.90
11538;DHT22;50159;49.426;11.182;2022-08-16T13:17:03;30.20;41.50
11538;DHT22;50159;49.426;11.182;2022-08-16T13:19:34;30.00;40.70
11538;DHT22;50159;49.426;11.182;2022-08-16T13:22:21;29.80;40.80
11538;DHT22;50159;49.426;11.182;2022-08-16T13:24:51;29.70;42.30
11538;DHT22;50159;49.426;11.182;2022-08-16T13:27:19;29.60;41.70
11538;DHT22;50159;49.426;11.182;2022-08-16T13:30:07;29.60;42.00
11538;DHT22;50159;49.426;11.182;2022-08-16T13:32:55;29.60;42.00
11538;DHT22;50159;49.426;11.182;2022-08-16T13:35:22;29.60;42.20
11538;DHT22;50159;49.426;11.182;2022-08-16T13:37:50;29.60;42.10
11538;DHT22;50159;49.426;11.182;2022-08-16T13:40:19;29.50;41.70
11538;DHT22;50159;49.426;11.182;2022-08-16T13:42:47;29.40;42.40
11538;DHT22;50159;49.426;11.182;2022-08-16T13:45:15;29.50;42.60
11538;DHT22;50159;49.426;11.182;2022-08-16T13:47:44;29.60;42.60
11538;DHT22;50159;49.426;11.182;2022-08-16T13:50:12;30.20;43.20
11538;DHT22;50159;49.426;11.182;2022-08-16T13:52:41;30.80;41.40
11538;DHT22;50159;49.426;11.182;2022-08-16T13:55:09;30.80;40.50
11538;DHT22;50159;49.426;11.182;2022-08-16T13:57:43;30.50;40.50
11538;DHT22;50159;49.426;11.182;2022-08-16T14:00:30;30.30;41.10
11538;DHT22;50159;49.426;11.182;2022-08-16T14:02:57;30.00;41.40
11538;DHT22;50159;49.426;11.182;2022-08-16T14:05:25;29.70;41.50
11538;DHT22;50159;49.426;11.182;2022-08-16T14:07:52;29.60;42.30
11538;DHT22;50159;49.426;11.182;2022-08-16T14:10:19;29.40;42.90
11538;DHT22;50159;49.426;11.182;2022-08-16T14:12:47;29.40;42.70
11538;DHT22;50159;49.426;11.182;2022-08-16T14:15:14;29.80;42.20
11538;DHT22;50159;49.426;11.182;2022-08-16T14:17:42;29.90;42.00
11538;DHT22;50159;49.426;11.182;2022-08-16T14:20:29;30.20;42.80
11538;DHT22;50159;49.426;11.182;2022-08-16T14:22:55;31.00;41.10
11538;DHT22;50159;49.426;11.182;2022-08-16T14:25:24;31.60;38.50
11538;DHT22;50159;49.426;11.182;2022-08-16T14:27:52;32.10;37.80
11538;DHT22;50159;49.426;11.182;2022-08-16T14:30:21;34.20;36.10
11538;DHT22;50159;49.426;11.182;2022-08-16T14:32:49;36.40;31.70
11538;DHT22;50159;49.426;11.182;2022-08-16T14:35:22;37.00;30.30
11538;DHT22;50159;49.426;11.182;2022-08-16T14:38:12;38.40;29.40
11538;DHT22;50159;49.426;11.182;2022-08-16T14:40:45;40.10;27.20
11538;DHT22;50159;49.426;11.182;2022-08-16T14:43:20;40.90;24.50
11538;DHT22;50159;49.426;11.182;2022-08-16T14:45:48;40.20;24.30
11538;DHT22;50159;49.426;11.182;2022-08-16T14:48:16;38.80;25.60
11538;DHT22;50159;49.426;11.182;2022-08-16T14:50:52;38.20;26.30
11538;DHT22;50159;49.426;11.182;2022-08-16T14:53:21;36.80;27.60
11538;DHT22;50159;49.426;11.182;2022-08-16T14:55:49;35.40;29.20
11538;DHT22;50159;49.426;11.182;2022-08-16T14:58:16;34.20;31.10
11538;DHT22;50159;49.426;11.182;2022-08-16T15:01:00;33.50;32.30
11538;DHT22;50159;49.426;11.182;2022-08-16T15:03:28;32.90;33.10
11538;DHT22;50159;49.426;11.182;2022-08-16T15:05:58;32.90;33.90
11538;DHT22;50159;49.426;11.182;2022-08-16T15:08:27;33.00;33.40
11538;DHT22;50159;49.426;11.182;2022-08-16T15:11:05;32.80;33.40
11538;DHT22;50159;49.426;11.182;2022-08-16T15:13:33;32.50;33.30
11538;DHT22;50159;49.426;11.182;2022-08-16T15:16:01;32.30;34.40
11538;DHT22;50159;49.426;11.182;2022-08-16T15:18:29;32.10;34.10
11538;DHT22;50159;49.426;11.182;2022-08-16T15:21:00;31.70;34.60
11538;DHT22;50159;49.426;11.182;2022-08-16T15:23:30;31.40;35.20
11538;DHT22;50159;49.426;11.182;2022-08-16T15:26:00;31.30;36.00
11538;DHT22;50159;49.426;11.182;2022-08-16T15:28:31;31.20;36.10
11538;DHT22;50159;49.426;11.182;2022-08-16T15:31:05;31.00;36.40
11538;DHT22;50159;49.426;11.182;2022-08-16T15:33:38;30.60;37.20
11538;DHT22;50159;49.426;11.182;2022-08-16T15:36:09;30.30;37.70
11538;DHT22;50159;49.426;11.182;2022-08-16T15:38:44;30.10;38.60
11538;DHT22;50159;49.426;11.182;2022-08-16T15:44:13;29.80;38.90
11538;DHT22;50159;49.426;11.182;2022-08-16T15:46:48;29.60;39.10
11538;DHT22;50159;49.426;11.182;2022-08-16T15:49:23;29.50;39.10
11538;DHT22;50159;49.426;11.182;2022-08-16T15:52:18;29.30;39.10
11538;DHT22;50159;49.426;11.182;2022-08-16T15:54:58;29.30;39.40
11538;DHT22;50159;49.426;11.182;2022-08-16T15:57:49;29.10;39.80
11538;DHT22;50159;49.426;11.182;2022-08-16T16:00:17;28.90;40.00
11538;DHT22;50159;49.426;11.182;2022-08-16T16:02:46;28.90;40.20
11538;DHT22;50159;49.426;11.182;2022-08-16T16:05:15;29.00;40.10
11538;DHT22;50159;49.426;11.182;2022-08-16T16:07:42;29.10;40.30
11538;DHT22;50159;49.426;11.182;2022-08-16T16:10:29;29.00;40.20